Time;durP1;ratioP1;P1;durP2;ratioP2;P2;SDS_P1;SDS_P2;PMS_P1;PMS_P2;Temp;Humidity;BMP_temperature;BMP_pressure;BME280_temperature;BME280_humidity;BME280_pressure;Samples;Min_cycle;Max_cycle;Signal;HPM_P1;HPM_P2
2023/12/23 00:00:37;;;;;;;54.30;26.40;;;23.40;56.40;;;;;;219170;1283;22562;-52
2023/12/23 00:06:02;;;;;;;46.60;25.40;;;23.40;56.00;;;;;;219105;1283;22540;-51
2023/12/23 00:11:07;;;;;;;48.20;25.50;;;23.30;56.20;;;;;;219277;1280;25257;-51
2023/12/23 00:16:12;;;;;;;44.40;24.10;;;23.30;56.40;;;;;;219228;1279;23491;-53
2023/12/23 00:21:17;;;;;;;43.00;23.30;;;23.10;56.60;;;;;;219090;1283;22549;-50
2023/12/23 00:26:21;;;;;;;42.30;23.90;;;23.10;56.20;;;;;;219353;1280;25520;-50
2023/12/23 00:31:26;;;;;;;42.90;22.90;;;23.20;56.40;;;;;;219103;1273;24233;-49
2023/12/23 00:36:30;;;;;;;39.60;22.40;;;23.60;55.40;;;;;;219202;1283;23239;-52
2023/12/23 00:41:37;;;;;;;38.60;21.90;;;23.90;54.70;;;;;;219091;1283;23924;-50
2023/12/23 00:46:41;;;;;;;35.90;20.90;;;24.20;54.00;;;;;;219295;1283;22587;-52
2023/12/23 00:51:46;;;;;;;35.40;20.70;;;24.30;53.20;;;;;;219153;1268;25310;-59
2023/12/23 00:56:50;;;;;;;35.70;19.90;;;24.30;53.90;;;;;;219376;1283;24262;-59
2023/12/23 01:01:54;;;;;;;34.10;19.40;;;24.10;54.00;;;;;;219196;1281;23497;-58
2023/12/23 01:06:59;;;;;;;32.70;18.20;;;23.90;54.30;;;;;;219186;1273;25377;-57
2023/12/23 01:12:04;;;;;;;34.50;20.60;;;23.80;54.30;;;;;;219296;1288;25436;-57
2023/12/23 01:17:08;;;;;;;33.50;21.00;;;23.70;54.40;;;;;;219215;1283;24263;-58
2023/12/23 01:22:14;;;;;;;34.00;19.30;;;23.60;54.60;;;;;;219170;1275;22667;-57
2023/12/23 01:27:18;;;;;;;29.90;17.80;;;23.50;54.70;;;;;;218959;1286;22536;-58
2023/12/23 01:32:22;;;;;;;27.20;17.70;;;23.40;54.60;;;;;;219724;1284;25391;-57
2023/12/23 01:37:26;;;;;;;27.40;16.10;;;23.40;54.30;;;;;;219275;1276;22541;-58
2023/12/23 01:42:30;;;;;;;28.10;17.20;;;23.30;54.50;;;;;;219076;1280;22569;-57
2023/12/23 01:47:38;;;;;;;30.30;16.80;;;23.20;54.60;;;;;;219308;1283;24106;-58
2023/12/23 01:52:42;;;;;;;27.40;16.40;;;23.20;54.80;;;;;;219382;1281;25339;-58
2023/12/23 01:57:46;;;;;;;26.50;14.80;;;23.60;54.30;;;;;;219344;1286;22646;-60
2023/12/23 02:02:51;;;;;;;24.50;15.40;;;23.80;54.00;;;;;;219026;1283;22547;-58
2023/12/23 02:07:57;;;;;;;24.10;14.70;;;23.90;53.40;;;;;;219365;1287;22543;-57
2023/12/23 02:13:14;;;;;;;23.80;15.30;;;24.10;53.10;;;;;;220172;1286;25388;-57
2023/12/23 02:18:20;;;;;;;23.30;14.40;;;24.10;53.00;;;;;;220405;1283;22589;-55
2023/12/23 02:23:30;;;;;;;23.30;14.40;;;24.00;52.90;;;;;;220538;1273;22949;-56
2023/12/23 02:28:35;;;;;;;21.70;13.20;;;23.90;53.00;;;;;;220822;1273;25440;-58
2023/12/23 02:33:41;;;;;;;18.60;13.00;;;23.80;53.00;;;;;;219261;1274;22558;-56
2023/12/23 02:38:45;;;;;;;21.30;12.50;;;23.60;53.80;;;;;;219178;1282;22541;-56
2023/12/23 02:43:49;;;;;;;21.00;13.00;;;23.50;53.80;;;;;;219145;1283;23808;-58
2023/12/23 02:48:54;;;;;;;18.50;12.70;;;23.30;54.20;;;;;;219149;1286;23850;-57
2023/12/23 02:53:58;;;;;;;21.00;13.20;;;23.30;54.70;;;;;;219094;1283;22819;-58
2023/12/23 02:59:02;;;;;;;18.00;11.30;;;23.20;54.70;;;;;;219073;1286;22552;-59
2023/12/23 03:04:06;;;;;;;14.70;11.10;;;23.20;54.60;;;;;;218993;1286;25657;-58
2023/12/23 03:09:11;;;;;;;17.30;11.30;;;23.10;54.40;;;;;;219095;1270;25528;-55
2023/12/23 03:14:15;;;;;;;18.00;12.00;;;23.50;54.00;;;;;;219097;1280;23741;-57
2023/12/23 03:19:19;;;;;;;16.80;10.80;;;23.80;53.40;;;;;;219056;1286;22620;-58
2023/12/23 03:24:23;;;;;;;17.30;11.00;;;24.10;52.90;;;;;;219006;1283;22600;-57
2023/12/23 03:29:27;;;;;;;13.60;9.80;;;24.20;52.60;;;;;;218970;1286;22803;-59
2023/12/23 03:34:31;;;;;;;12.90;9.30;;;24.10;52.40;;;;;;218980;1283;24299;-58
2023/12/23 03:39:35;;;;;;;12.60;9.00;;;24.10;52.50;;;;;;218822;1283;24479;-58
2023/12/23 03:44:39;;;;;;;12.40;9.60;;;24.00;52.70;;;;;;219171;1283;22542;-58
2023/12/23 03:49:43;;;;;;;13.10;9.20;;;24.00;52.70;;;;;;218924;1283;22554;-57
2023/12/23 03:54:47;;;;;;;14.30;10.20;;;23.90;52.90;;;;;;219207;1283;22563;-58
2023/12/23 03:59:52;;;;;;;12.20;9.00;;;23.80;53.00;;;;;;219150;1286;22546;-57
2023/12/23 04:04:56;;;;;;;13.20;8.50;;;23.70;53.20;;;;;;219144;1288;25494;-57
2023/12/23 04:10:00;;;;;;;12.00;8.30;;;23.60;53.00;;;;;;218975;1286;22548;-56
2023/12/23 04:15:05;;;;;;;11.60;8.30;;;23.60;53.00;;;;;;219120;1286;25506;-58
2023/12/23 04:20:10;;;;;;;12.60;8.20;;;23.50;53.50;;;;;;219025;1286;22553;-57
2023/12/23 04:25:15;;;;;;;11.00;8.20;;;23.40;53.80;;;;;;219355;1283;22521;-58
2023/12/23 04:30:22;;;;;;;9.40;6.90;;;23.30;53.50;;;;;;219042;1286;22662;-59
2023/12/23 04:35:26;;;;;;;10.10;6.90;;;23.50;53.80;;;;;;219185;1280;22549;-59
2023/12/23 04:40:31;;;;;;;11.70;7.90;;;23.70;53.40;;;;;;219163;1284;22553;-58
2023/12/23 04:45:35;;;;;;;9.30;6.80;;;23.90;52.70;;;;;;219315;1288;22574;-57
2023/12/23 04:50:40;;;;;;;10.60;7.10;;;24.00;52.50;;;;;;219237;1286;25363;-56
2023/12/23 04:55:44;;;;;;;10.20;6.90;;;24.10;52.20;;;;;;219265;1288;22546;-57
2023/12/23 05:00:49;;;;;;;8.40;6.80;;;24.10;52.30;;;;;;219021;1280;25256;-58
2023/12/23 05:05:54;;;;;;;9.60;7.10;;;24.10;52.30;;;;;;219266;1285;24224;-57
2023/12/23 05:10:59;;;;;;;8.90;6.00;;;24.00;52.10;;;;;;219377;1280;22536;-59
2023/12/23 05:16:03;;;;;;;9.00;6.20;;;23.90;52.60;;;;;;219211;1280;25685;-58
2023/12/23 05:21:08;;;;;;;8.90;5.90;;;23.70;52.50;;;;;;218994;1281;22549;-58
2023/12/23 05:26:17;;;;;;;7.90;6.10;;;23.70;52.90;;;;;;219203;1283;23795;-58
2023/12/23 05:31:22;;;;;;;8.50;5.60;;;23.60;52.80;;;;;;219338;1285;24257;-58
2023/12/23 05:36:26;;;;;;;6.20;5.20;;;23.50;52.80;;;;;;219405;1274;22540;-57
2023/12/23 05:41:30;;;;;;;6.80;5.40;;;23.50;53.30;;;;;;219081;1284;22548;-57
2023/12/23 05:46:34;;;;;;;7.60;5.10;;;23.40;53.00;;;;;;219009;1265;24113;-57
2023/12/23 05:51:38;;;;;;;5.70;5.10;;;23.30;53.40;;;;;;219324;1285;25505;-58
2023/12/23 05:56:43;;;;;;;7.30;4.70;;;23.20;53.50;;;;;;219256;1283;23921;-58
2023/12/23 06:01:47;;;;;;;6.70;5.40;;;23.20;53.40;;;;;;219323;1286;25396;-59
2023/12/23 06:06:51;;;;;;;7.00;5.40;;;23.10;53.50;;;;;;219168;1280;22546;-56
2023/12/23 06:11:56;;;;;;;6.00;4.40;;;23.00;54.10;;;;;;219183;1285;23490;-58
2023/12/23 06:17:00;;;;;;;6.30;4.80;;;22.90;53.90;;;;;;219194;1280;25299;-57
2023/12/23 06:22:04;;;;;;;5.40;4.70;;;23.00;54.00;;;;;;218821;1288;189612;-57
2023/12/23 06:27:08;;;;;;;7.20;4.70;;;23.30;53.80;;;;;;219160;1287;22540;-58
2023/12/23 06:32:13;;;;;;;6.20;4.30;;;23.90;52.40;;;;;;219259;1280;22664;-57
2023/12/23 06:37:17;;;;;;;5.40;4.60;;;24.10;51.60;;;;;;219144;1286;22621;-58
2023/12/23 06:42:21;;;;;;;5.00;4.50;;;24.20;51.90;;;;;;219271;1283;22666;-57
2023/12/23 06:47:26;;;;;;;6.10;4.20;;;24.20;51.40;;;;;;219346;1280;23615;-57
2023/12/23 06:52:30;;;;;;;4.70;4.20;;;24.10;51.40;;;;;;219322;1286;25289;-58
2023/12/23 06:57:36;;;;;;;4.60;4.10;;;24.00;51.70;;;;;;219010;1283;23946;-57
2023/12/23 07:02:41;;;;;;;4.80;4.20;;;23.80;51.80;;;;;;219133;1286;24307;-58
2023/12/23 07:07:46;;;;;;;3.70;3.30;;;23.70;52.00;;;;;;219233;1283;22801;-58
2023/12/23 07:12:50;;;;;;;4.60;4.00;;;23.70;52.30;;;;;;219089;1281;22547;-59
2023/12/23 07:17:55;;;;;;;7.20;3.50;;;23.50;51.80;;;;;;219357;1288;25255;-58
2023/12/23 07:23:00;;;;;;;3.40;3.10;;;23.40;52.60;;;;;;219207;1278;22656;-58
2023/12/23 07:28:05;;;;;;;4.40;3.60;;;23.40;53.00;;;;;;219163;1283;25424;-58
2023/12/23 07:33:09;;;;;;;3.70;3.20;;;23.30;53.00;;;;;;219258;1281;25530;-57
2023/12/23 07:38:14;;;;;;;4.60;3.20;;;23.30;53.60;;;;;;219026;1273;22538;-57
2023/12/23 07:43:18;;;;;;;5.00;3.60;;;23.10;53.60;;;;;;219310;1286;23922;-59
2023/12/23 07:48:25;;;;;;;3.70;3.30;;;23.10;53.80;;;;;;219014;1283;24708;-58
2023/12/23 07:53:30;;;;;;;4.70;3.90;;;23.00;53.50;;;;;;219048;1287;25310;-58
2023/12/23 07:58:34;;;;;;;3.80;3.50;;;22.90;53.60;;;;;;217898;1292;22551;-58
2023/12/23 08:03:40;;;;;;;3.10;2.90;;;22.90;53.40;;;;;;218850;1283;22543;-58
2023/12/23 08:08:45;;;;;;;4.50;3.50;;;23.20;53.20;;;;;;218015;1292;25325;-58
2023/12/23 08:13:49;;;;;;;3.90;2.70;;;23.50;52.40;;;;;;218620;1288;22669;-58
2023/12/23 08:18:53;;;;;;;3.90;2.90;;;23.70;52.40;;;;;;218860;1288;24349;-58
2023/12/23 08:23:57;;;;;;;2.70;2.10;;;23.80;51.80;;;;;;218827;1282;22545;-59
2023/12/23 08:29:02;;;;;;;3.90;3.30;;;23.80;51.40;;;;;;218829;1288;22546;-57
2023/12/23 08:34:07;;;;;;;3.40;3.10;;;23.70;52.00;;;;;;219013;1283;22546;-57
2023/12/23 08:39:12;;;;;;;5.80;3.10;;;23.60;52.70;;;;;;218836;1283;25317;-56
2023/12/23 08:44:17;;;;;;;4.90;2.80;;;23.40;53.10;;;;;;218655;1288;22550;-56
2023/12/23 08:49:21;;;;;;;5.80;3.00;;;23.30;53.00;;;;;;220091;1286;22594;-54
2023/12/23 08:54:26;;;;;;;4.00;2.50;;;23.30;52.90;;;;;;222403;1288;23250;-56
2023/12/23 08:59:30;;;;;;;4.00;2.40;;;23.10;53.30;;;;;;221206;1288;25267;-57
2023/12/23 09:04:35;;;;;;;5.70;2.90;;;23.10;52.90;;;;;;218727;1281;25658;-56
2023/12/23 09:09:41;;;;;;;4.10;2.50;;;23.00;53.20;;;;;;218805;1283;22559;-58
2023/12/23 09:14:51;;;;;;;;;;;22.90;53.10;;;;;;219366;1286;25277;-55
2023/12/23 09:19:55;;;;;;;12.40;2.80;;;23.20;52.20;;;;;;219196;1283;23942;-57
2023/12/23 09:25:00;;;;;;;4.30;2.20;;;23.60;51.40;;;;;;219077;1288;22548;-57
2023/12/23 09:30:05;;;;;;;3.70;2.30;;;23.80;51.10;;;;;;219119;1282;22537;-57
2023/12/23 09:35:09;;;;;;;4.20;2.30;;;24.00;50.50;;;;;;219313;1286;23952;-56
2023/12/23 09:40:15;;;;;;;7.60;2.40;;;24.10;50.30;;;;;;219211;1280;22530;-58
2023/12/23 09:45:21;;;;;;;4.50;2.10;;;24.00;50.20;;;;;;219231;1287;23314;-57
2023/12/23 09:50:26;;;;;;;4.40;2.00;;;23.80;50.90;;;;;;219171;1285;22805;-57
2023/12/23 09:55:32;;;;;;;5.60;2.30;;;23.60;51.00;;;;;;218974;1287;24192;-55
2023/12/23 10:00:38;;;;;;;5.10;1.80;;;23.40;51.30;;;;;;219336;1283;22622;-57
2023/12/23 10:05:43;;;;;;;3.80;1.90;;;23.40;51.80;;;;;;219328;1274;22663;-57
2023/12/23 10:10:48;;;;;;;3.80;2.20;;;23.30;51.40;;;;;;219401;1288;25375;-57
2023/12/23 10:15:53;;;;;;;3.90;2.00;;;23.10;51.40;;;;;;219200;1273;22633;-55
2023/12/23 10:21:17;;;;;;;6.50;2.00;;;23.10;51.70;;;;;;219139;1280;24144;-54
2023/12/23 10:27:06;;;;;;;5.70;1.90;;;23.10;51.30;;;;;;219038;1280;22586;-56
2023/12/23 10:32:14;;;;;;;4.40;1.90;;;23.40;51.20;;;;;;219081;1279;24384;-53
2023/12/23 10:37:18;;;;;;;3.70;1.90;;;23.70;50.90;;;;;;219403;1273;23110;-57
2023/12/23 10:42:24;;;;;;;2.90;1.70;;;23.80;50.90;;;;;;219262;1283;25180;-56
2023/12/23 10:47:30;;;;;;;9.20;3.00;;;23.90;51.30;;;;;;219037;1280;24182;-57
2023/12/23 10:52:36;;;;;;;2.80;1.50;;;23.80;51.50;;;;;;219442;1273;22671;-57
2023/12/23 10:57:41;;;;;;;1.80;1.40;;;23.60;51.80;;;;;;219271;1283;22546;-57
2023/12/23 11:02:47;;;;;;;2.20;1.40;;;23.50;52.50;;;;;;219511;1286;22537;-58
2023/12/23 11:07:55;;;;;;;1.10;1.00;;;23.40;52.10;;;;;;219231;1281;25419;-56
2023/12/23 11:13:10;;;;;;;2.10;1.50;;;23.30;52.70;;;;;;218995;1283;24084;-55
2023/12/23 11:18:14;;;;;;;9.20;1.00;;;23.10;53.10;;;;;;219188;1286;23161;-58
2023/12/23 11:23:32;;;;;;;1.80;1.10;;;23.10;53.60;;;;;;219238;1283;24374;-58
2023/12/23 11:28:36;;;;;;;7.70;1.20;;;23.00;53.50;;;;;;218961;1283;22602;-58
2023/12/23 11:33:41;;;;;;;1.20;1.00;;;22.90;54.40;;;;;;219065;1283;22586;-56
2023/12/23 11:38:47;;;;;;;1.30;1.20;;;22.90;54.30;;;;;;219029;1283;24412;-56
2023/12/23 11:43:52;;;;;;;1.80;1.00;;;22.80;54.00;;;;;;218956;1283;22539;-58
2023/12/23 11:48:59;;;;;;;1.60;1.00;;;22.70;54.20;;;;;;219166;1273;22540;-58
2023/12/23 11:54:04;;;;;;;4.60;1.30;;;22.70;54.50;;;;;;219030;1283;22576;-59
2023/12/23 11:59:09;;;;;;;29.20;10.50;;;22.60;54.40;;;;;;219069;1286;22546;-57
2023/12/23 12:04:13;;;;;;;34.30;16.80;;;22.90;53.80;;;;;;218776;1283;23297;-59
2023/12/23 12:09:18;;;;;;;64.10;30.20;;;23.40;52.60;;;;;;218935;1288;25572;-59
2023/12/23 12:14:24;;;;;;;79.90;38.20;;;23.70;51.90;;;;;;218749;1283;24339;-58
2023/12/23 12:19:29;;;;;;;63.50;31.70;;;24.00;51.40;;;;;;219267;1282;24293;-58
2023/12/23 12:24:34;;;;;;;62.70;27.40;;;23.90;51.40;;;;;;219091;1286;25279;-58
2023/12/23 12:29:39;;;;;;;52.90;26.00;;;23.90;51.40;;;;;;219005;1285;24916;-58
2023/12/23 12:34:43;;;;;;;45.80;22.30;;;23.80;51.60;;;;;;219151;1283;23869;-58
2023/12/23 12:39:51;;;;;;;37.90;20.40;;;23.70;51.80;;;;;;218982;1283;25302;-60
2023/12/23 12:45:01;;;;;;;38.50;17.50;;;23.60;51.60;;;;;;218876;1282;22569;-58
2023/12/23 12:50:08;;;;;;;33.50;16.00;;;23.40;51.70;;;;;;219121;1280;24398;-59
2023/12/23 12:55:13;;;;;;;24.80;13.80;;;23.40;51.70;;;;;;219269;1286;24123;-59
2023/12/23 13:00:18;;;;;;;24.30;12.60;;;23.30;51.60;;;;;;219216;1282;25180;-59
2023/12/23 13:05:23;;;;;;;19.00;10.60;;;23.30;51.60;;;;;;219067;1282;22554;-58
2023/12/23 13:10:31;;;;;;;22.20;10.60;;;23.20;52.20;;;;;;218861;1281;25313;-59
2023/12/23 13:15:35;;;;;;;17.20;8.80;;;23.20;51.90;;;;;;218891;1280;22664;-58
2023/12/23 13:20:40;;;;;;;17.60;8.10;;;23.10;52.40;;;;;;218989;1270;22561;-58
2023/12/23 13:25:48;;;;;;;16.60;8.10;;;23.00;52.80;;;;;;219037;1283;24390;-59
2023/12/23 13:30:52;;;;;;;18.90;12.20;;;23.00;53.10;;;;;;219051;1282;22607;-58
2023/12/23 13:35:57;;;;;;;16.10;10.20;;;22.90;53.20;;;;;;219004;1282;22591;-58
2023/12/23 13:41:10;;;;;;;17.20;9.10;;;22.90;53.70;;;;;;219411;1283;22565;-59
2023/12/23 13:46:14;;;;;;;12.20;8.10;;;23.00;53.10;;;;;;218994;1276;22776;-57
2023/12/23 13:51:19;;;;;;;15.00;7.00;;;22.90;52.80;;;;;;218912;1285;22692;-60
2023/12/23 13:56:24;;;;;;;15.90;6.70;;;22.80;54.30;;;;;;219685;1286;22643;-58
2023/12/23 14:01:28;;;;;;;13.10;5.60;;;22.70;54.80;;;;;;221187;1285;25246;-60
2023/12/23 14:06:33;;;;;;;10.90;5.60;;;22.70;55.40;;;;;;219307;1280;24384;-59
2023/12/23 14:11:38;;;;;;;11.40;5.30;;;22.70;55.60;;;;;;219145;1283;22590;-59
2023/12/23 14:16:42;;;;;;;6.40;4.60;;;22.70;56.20;;;;;;219173;1283;24442;-59
2023/12/23 14:21:46;;;;;;;7.30;3.60;;;22.60;55.90;;;;;;219081;1288;22605;-58
2023/12/23 14:26:51;;;;;;;8.00;3.80;;;22.60;55.60;;;;;;219253;1273;25484;-59
2023/12/23 14:31:55;;;;;;;6.90;4.10;;;22.50;54.90;;;;;;219190;1280;25487;-58
2023/12/23 14:37:00;;;;;;;9.50;4.60;;;22.40;54.10;;;;;;218960;1273;24898;-59
2023/12/23 14:42:05;;;;;;;5.80;3.10;;;22.40;53.60;;;;;;219358;1287;24114;-55
2023/12/23 14:47:10;;;;;;;8.10;3.10;;;22.30;53.50;;;;;;219397;1266;22552;-53
2023/12/23 14:52:14;;;;;;;7.70;2.90;;;22.50;53.70;;;;;;219528;1281;22556;-53
2023/12/23 14:57:18;;;;;;;3.60;1.70;;;23.10;52.50;;;;;;219138;1273;22671;-58
2023/12/23 15:02:23;;;;;;;4.00;1.80;;;23.60;50.90;;;;;;219231;1264;22539;-52
2023/12/23 15:07:28;;;;;;;2.40;1.50;;;23.90;50.40;;;;;;219321;1282;22539;-59
2023/12/23 15:12:33;;;;;;;4.40;1.30;;;24.10;49.90;;;;;;219044;1285;23948;-55
2023/12/23 15:17:37;;;;;;;1.30;1.10;;;23.90;50.20;;;;;;219253;1279;24277;-54
2023/12/23 15:22:42;;;;;;;1.00;0.90;;;23.80;50.60;;;;;;219252;1285;22551;-51
2023/12/23 15:27:46;;;;;;;2.70;1.10;;;23.60;51.00;;;;;;219351;1273;22701;-54
2023/12/23 15:32:50;;;;;;;2.80;0.90;;;23.60;51.10;;;;;;219398;1283;24437;-53
2023/12/23 15:37:55;;;;;;;4.60;0.90;;;23.60;51.10;;;;;;219261;1286;22597;-51
2023/12/23 15:42:59;;;;;;;6.40;1.90;;;23.70;51.10;;;;;;219306;1283;23008;-51
2023/12/23 15:48:07;;;;;;;4.70;1.20;;;23.70;52.30;;;;;;219066;1283;22560;-53
2023/12/23 15:53:13;;;;;;;2.00;1.30;;;23.60;52.80;;;;;;217880;1280;23908;-53
2023/12/23 15:58:17;;;;;;;2.30;1.30;;;23.50;52.70;;;;;;218179;1293;24281;-52
2023/12/23 16:03:21;;;;;;;4.50;1.40;;;23.40;53.50;;;;;;217688;1279;22548;-50
2023/12/23 16:08:25;;;;;;;4.90;1.60;;;23.30;54.70;;;;;;218382;1285;22614;-53
2023/12/23 16:13:35;;;;;;;6.40;2.40;;;23.20;54.90;;;;;;218927;1288;25278;-54
2023/12/23 16:18:41;;;;;;;7.20;2.40;;;23.20;54.50;;;;;;219015;1276;26554;-55
2023/12/23 16:23:47;;;;;;;5.60;2.10;;;23.20;54.70;;;;;;218825;1286;25490;-55
2023/12/23 16:28:52;;;;;;;9.00;2.50;;;23.10;54.70;;;;;;218976;1282;24278;-54
2023/12/23 16:33:56;;;;;;;5.70;2.20;;;23.00;54.90;;;;;;219250;1280;22549;-52
2023/12/23 16:39:00;;;;;;;6.90;2.20;;;23.00;54.90;;;;;;219004;1283;22584;-55
2023/12/23 16:44:05;;;;;;;9.00;2.00;;;23.10;54.60;;;;;;219071;1282;25728;-55
2023/12/23 16:49:09;;;;;;;9.70;2.90;;;23.00;55.00;;;;;;219141;1279;22540;-56
2023/12/23 16:54:14;;;;;;;8.10;1.90;;;22.90;55.60;;;;;;219271;1288;24402;-57
2023/12/23 16:59:18;;;;;;;5.40;2.00;;;22.80;55.90;;;;;;219076;1273;22491;-56
2023/12/23 17:04:23;;;;;;;3.60;1.60;;;22.70;55.80;;;;;;219114;1282;23879;-57
2023/12/23 17:09:27;;;;;;;6.20;1.60;;;22.70;55.60;;;;;;219303;1280;26513;-58
2023/12/23 17:14:31;;;;;;;3.70;1.40;;;22.70;55.70;;;;;;219095;1287;24482;-55
2023/12/23 17:19:36;;;;;;;4.50;1.60;;;22.70;55.20;;;;;;219255;1286;25275;-56
2023/12/23 17:24:40;;;;;;;3.20;1.60;;;22.60;55.70;;;;;;219412;1283;23403;-55
2023/12/23 17:29:48;;;;;;;4.90;2.00;;;22.60;57.10;;;;;;219169;1280;22603;-56
2023/12/23 17:34:53;;;;;;;2.00;1.40;;;22.60;57.90;;;;;;219345;1273;22877;-56
2023/12/23 17:39:57;;;;;;;6.00;1.30;;;22.70;57.20;;;;;;219334;1286;22555;-58
2023/12/23 17:45:02;;;;;;;3.20;1.30;;;22.60;56.80;;;;;;218592;1276;24297;-56
2023/12/23 17:50:08;;;;;;;2.50;0.90;;;22.70;56.40;;;;;;218647;1289;23251;-57
2023/12/23 17:55:12;;;;;;;2.30;0.80;;;22.90;56.00;;;;;;218557;1288;22548;-55
2023/12/23 18:00:17;;;;;;;0.80;0.60;;;23.30;55.20;;;;;;218440;1273;22575;-56
2023/12/23 18:05:22;;;;;;;1.30;0.80;;;23.70;54.00;;;;;;219162;1280;25169;-56
2023/12/23 18:10:27;;;;;;;4.00;0.90;;;23.90;53.40;;;;;;219252;1270;22596;-58
2023/12/23 18:15:31;;;;;;;0.90;0.50;;;23.90;53.80;;;;;;219361;1282;22595;-56
2023/12/23 18:20:36;;;;;;;2.00;0.50;;;23.80;53.50;;;;;;219208;1285;24001;-54
2023/12/23 18:25:43;;;;;;;0.90;0.40;;;23.60;53.30;;;;;;219200;1267;195390;-55
2023/12/23 18:30:47;;;;;;;1.30;0.40;;;23.50;53.50;;;;;;219157;1264;22668;-56
2023/12/23 18:35:52;;;;;;;6.10;0.50;;;23.30;53.80;;;;;;219282;1283;24224;-56
2023/12/23 18:40:56;;;;;;;1.00;0.50;;;23.20;53.90;;;;;;219179;1274;25481;-56
2023/12/23 18:46:01;;;;;;;0.40;0.40;;;23.00;54.30;;;;;;219280;1280;22596;-52
2023/12/23 18:51:06;;;;;;;1.60;0.50;;;23.00;54.50;;;;;;219488;1272;24218;-57
2023/12/23 18:56:10;;;;;;;3.90;1.90;;;23.10;54.20;;;;;;219249;1282;22549;-59
2023/12/23 19:01:19;;;;;;;4.50;0.40;;;22.90;54.90;;;;;;219336;1280;23955;-55
2023/12/23 19:06:23;;;;;;;0.50;0.30;;;22.90;54.50;;;;;;219206;1280;24964;-54
2023/12/23 19:11:28;;;;;;;1.40;0.60;;;22.90;54.60;;;;;;219112;1280;24324;-54
2023/12/23 19:16:36;;;;;;;0.50;0.30;;;22.90;55.00;;;;;;219281;1280;22548;-55
2023/12/23 19:21:42;;;;;;;2.70;0.50;;;22.80;55.30;;;;;;219317;1280;25388;-55
2023/12/23 19:26:47;;;;;;;0.20;0.20;;;22.60;55.30;;;;;;219223;1283;22549;-56
2023/12/23 19:31:51;;;;;;;1.20;0.30;;;22.60;55.30;;;;;;219148;1285;24074;-53
2023/12/23 19:36:55;;;;;;;2.10;0.40;;;22.50;55.30;;;;;;219249;1280;22543;-54
2023/12/23 19:42:01;;;;;;;0.60;0.40;;;22.50;55.50;;;;;;219374;1283;23171;-56
2023/12/23 19:47:06;;;;;;;1.40;0.20;;;22.50;55.50;;;;;;219421;1288;24256;-55
2023/12/23 19:52:11;;;;;;;1.10;0.30;;;22.40;55.50;;;;;;219388;1283;24289;-56
2023/12/23 19:57:15;;;;;;;2.90;0.30;;;22.70;55.20;;;;;;219231;1287;22540;-54
2023/12/23 20:02:19;;;;;;;0.60;0.30;;;23.20;54.00;;;;;;219400;1286;23954;-54
2023/12/23 20:07:25;;;;;;;0.20;0.20;;;23.60;53.00;;;;;;219268;1283;24790;-56
2023/12/23 20:12:29;;;;;;;1.50;0.40;;;23.80;52.60;;;;;;219115;1285;22789;-54
2023/12/23 20:17:33;;;;;;;1.40;0.50;;;23.90;52.70;;;;;;219110;1280;24428;-54
2023/12/23 20:22:40;;;;;;;1.80;0.20;;;23.80;52.30;;;;;;219258;1281;22580;-52
2023/12/23 20:27:45;;;;;;;0.20;0.20;;;23.70;52.40;;;;;;219027;1283;25506;-54
2023/12/23 20:32:49;;;;;;;0.10;0.10;;;23.70;52.60;;;;;;219436;1283;22665;-53
2023/12/23 20:37:54;;;;;;;1.10;0.20;;;23.60;52.70;;;;;;218993;1285;22542;-54
2023/12/23 20:42:58;;;;;;;0.70;0.30;;;23.50;52.70;;;;;;219225;1283;22536;-52
2023/12/23 20:48:05;;;;;;;3.30;0.30;;;23.40;53.30;;;;;;219165;1277;22674;-54
2023/12/23 20:53:12;;;;;;;5.40;0.50;;;23.40;53.10;;;;;;219151;1286;24285;-54
2023/12/23 20:58:16;;;;;;;3.50;0.30;;;23.40;53.90;;;;;;219360;1285;24196;-51
2023/12/23 21:03:20;;;;;;;2.50;0.30;;;23.30;53.70;;;;;;219122;1283;22552;-55
2023/12/23 21:08:25;;;;;;;0.40;0.40;;;23.20;54.60;;;;;;219231;1287;22536;-54
2023/12/23 21:13:29;;;;;;;0.80;0.30;;;23.10;54.50;;;;;;219395;1280;25486;-56
2023/12/23 21:18:34;;;;;;;4.90;0.50;;;23.00;54.30;;;;;;219342;1286;24209;-66
2023/12/23 21:23:38;;;;;;;5.60;0.60;;;23.00;54.60;;;;;;219081;1283;22559;-58
2023/12/23 21:28:42;;;;;;;1.00;0.40;;;22.90;54.80;;;;;;219074;1279;22556;-60
2023/12/23 21:33:47;;;;;;;1.20;0.30;;;22.90;53.80;;;;;;219170;1279;23028;-60
2023/12/23 21:38:52;;;;;;;0.90;0.50;;;23.10;53.30;;;;;;219211;1280;24357;-50
2023/12/23 21:43:56;;;;;;;3.30;0.30;;;23.50;52.60;;;;;;219181;1286;25350;-55
2023/12/23 21:49:00;;;;;;;0.90;0.40;;;23.70;52.10;;;;;;219148;1280;24013;-56
2023/12/23 21:54:06;;;;;;;3.70;0.40;;;23.80;51.90;;;;;;219220;1283;22681;-56
2023/12/23 21:59:10;;;;;;;2.60;0.20;;;23.80;52.10;;;;;;219194;1276;24196;-57
2023/12/23 22:04:14;;;;;;;0.30;0.20;;;23.70;52.30;;;;;;219018;1283;24202;-56
2023/12/23 22:09:19;;;;;;;0.20;0.10;;;23.60;52.50;;;;;;219047;1282;22553;-56
2023/12/23 22:14:23;;;;;;;0.30;0.20;;;23.60;52.50;;;;;;218944;1285;22657;-57
2023/12/23 22:19:28;;;;;;;14.00;1.00;;;23.50;52.70;;;;;;218971;1283;25012;-57
2023/12/23 22:24:32;;;;;;;1.50;0.50;;;23.50;55.50;;;;;;219092;1283;23268;-64
2023/12/23 22:29:40;;;;;;;2.80;0.40;;;23.60;55.80;;;;;;219015;1276;22537;-60
2023/12/23 22:34:52;;;;;;;5.10;0.60;;;23.50;55.00;;;;;;219027;1288;22596;-51
2023/12/23 22:40:06;;;;;;;0.80;0.40;;;23.40;55.00;;;;;;218949;1283;23047;-51
2023/12/23 22:45:17;;;;;;;0.60;0.20;;;23.50;54.50;;;;;;219278;1283;24389;-51
2023/12/23 22:50:27;;;;;;;4.80;0.40;;;23.70;53.80;;;;;;219108;1283;26664;-52
2023/12/23 22:55:36;;;;;;;1.00;0.40;;;23.90;53.20;;;;;;219143;1283;25434;-53
2023/12/23 23:00:44;;;;;;;0.20;0.20;;;24.00;52.80;;;;;;219124;1286;25309;-51
2023/12/23 23:05:50;;;;;;;1.20;0.30;;;24.10;52.70;;;;;;218930;1283;24241;-51
2023/12/23 23:10:57;;;;;;;0.30;0.20;;;24.10;52.70;;;;;;220476;1283;24221;-52
2023/12/23 23:16:12;;;;;;;2.80;0.40;;;24.00;52.70;;;;;;219074;1283;25676;-52
2023/12/23 23:21:27;;;;;;;3.70;0.30;;;23.80;54.40;;;;;;220461;1286;23982;-58
2023/12/23 23:26:31;;;;;;;0.70;0.50;;;23.80;53.60;;;;;;220320;1283;22673;-48
2023/12/23 23:31:35;;;;;;;2.20;0.40;;;23.80;53.20;;;;;;219619;1274;22813;-49
2023/12/23 23:36:40;;;;;;;0.40;0.30;;;23.60;53.50;;;;;;218975;1286;22690;-48
2023/12/23 23:41:44;;;;;;;0.80;0.40;;;23.50;53.80;;;;;;219312;1280;23015;-50
2023/12/23 23:46:49;;;;;;;0.70;0.30;;;23.30;54.10;;;;;;219209;1280;26244;-50
2023/12/23 23:51:54;;;;;;;1.00;0.30;;;23.30;54.30;;;;;;219100;1283;22559;-50
2023/12/23 23:56:59;;;;;;;0.70;0.40;;;23.10;54.50;;;;;;219113;1283;23163;-51
